Twin Bridges, CA (95721)

12:35 AM PDT on May 25, 2015 (GMT -0700)
Tahoe Keys | | Change Station
CLOSE
Current Station
Personal Weather Station
Location: South Lake Tahoe, CA
Elevation: 6296 ft
Nearby Weather Stations

Elev 6296 ft 38.92 °N, 120.01 °W | Updated 5 minutes ago

Fog
Fog
44.8 °F
Feels Like 45 °F
N
0.0
Wind Variable Wind from ESE

Today
High -- | Low -- °F
--% Chance of Precip.
Yesterday
High -- | Low -- °F
Precip. -- in
5:40 AM 8:14 PM
Waxing Crescent, 46% visible
Pressure 29.96 in
Visibility 0.5 miles
Clouds Mostly Cloudy 200 ft
Mostly Cloudy 6000 ft
Windchill 45 °F
Dew Point 44 °F
Humidity 99%
Rainfall 0.00 in
Snow Depth Not available.
UV 0 out of 12
Pollen 6.90 out of 12
Air Quality Not available.
Flu Activity Sporadic
METAR KTVL 250653Z AUTO 00000KT 1/2SM FG BKN002 BKN060 08/06 A3009 RMK AO2 SLP144 T00830061

More Conditions Fewer Conditions

Pressure 29.96 in
Visibility 0.5 miles
Clouds Mostly Cloudy 200 ft
Mostly Cloudy 6000 ft
Windchill 45 °F
Dew Point 44 °F
Humidity 99%
Rainfall 0.00 in
Snow Depth Not available.
UV 0 out of 12
Pollen 6.90 out of 12
Air Quality Not available.
Flu Activity Sporadic
METAR KTVL 250653Z AUTO 00000KT 1/2SM FG BKN002 BKN060 08/06 A3009 RMK AO2 SLP144 T00830061

More Conditions Fewer Conditions

10-Day Weather Forecast

Almanac

Astronomy

May. 25, 2015 Rise Set
Actual Time
Civil Twilight
Nautical Twilight
Astronomical Twilight
Moon
Length of Visible Light
Length of Day
Tomorrow will be .
, % of the Moon is Illuminated

Today's Extremes

State Highs State Lows

Community

WunderPhotos

Upload Photos

1,823,959 photos uploaded!

WunderBlogs® & News

Nearby

Air Quality

  Air Quality AQ Index Pollutant
Not available.

Snow Depth

Station Depth Elevation

Earthquake Activity

City Distance Mag. Time & Date
Minimum magnitude displayed is 2.5.

Coastal Water Temperatures

Place Temperature

Stations

Nearby Weather Stations

Station Location Temp. Windchill Dew Point Humidity Wind Precip. Elev Updated Type